createdAt,value
2018-11-05T00:00:46.474Z,15.20
2018-11-05T00:03:19.983Z,14.40
2018-11-05T00:05:53.337Z,12.27
2018-11-05T00:08:26.781Z,14.47
2018-11-05T00:11:00.270Z,10.87
2018-11-05T00:13:33.738Z,12.23
2018-11-05T00:16:07.218Z,12.00
2018-11-05T00:18:40.653Z,14.57
2018-11-05T00:21:14.259Z,12.60
2018-11-05T00:23:47.615Z,12.60
2018-11-05T00:26:21.165Z,12.87
2018-11-05T00:28:54.493Z,11.00
2018-11-05T00:31:28.062Z,11.27
2018-11-05T00:34:02.130Z,11.00
2018-11-05T00:36:35.622Z,12.33
2018-11-05T00:39:10.733Z,11.13
2018-11-05T00:41:44.118Z,10.47
2018-11-05T00:44:17.713Z,14.93
2018-11-05T00:46:51.261Z,10.30
2018-11-05T00:49:24.649Z,13.37
2018-11-05T00:51:58.035Z,10.60
2018-11-05T00:54:31.408Z,19.40
2018-11-05T00:57:05.011Z,11.77
2018-11-05T00:59:38.636Z,9.67
2018-11-05T01:02:12.250Z,11.17
2018-11-05T01:04:45.565Z,11.03
2018-11-05T01:07:18.961Z,10.43
2018-11-05T01:09:52.350Z,8.27
2018-11-05T01:12:25.813Z,14.27
2018-11-05T01:14:59.225Z,11.80
2018-11-05T01:17:32.615Z,11.40
2018-11-05T01:20:07.488Z,10.40
2018-11-05T01:22:40.811Z,17.63
2018-11-05T01:25:14.388Z,9.20
2018-11-05T01:27:47.716Z,12.00
2018-11-05T01:30:21.260Z,9.33
2018-11-05T01:32:54.698Z,12.00
2018-11-05T01:35:28.129Z,13.60
2018-11-05T01:38:01.478Z,11.53
2018-11-05T01:40:34.844Z,10.30
2018-11-05T01:43:08.489Z,10.30
2018-11-05T01:45:41.810Z,10.80
2018-11-05T01:48:15.397Z,13.23
2018-11-05T01:50:48.888Z,11.73
2018-11-05T01:53:22.509Z,12.13
2018-11-05T01:55:56.019Z,8.93
2018-11-05T01:58:29.591Z,12.43
2018-11-05T02:01:03.057Z,10.87
2018-11-05T02:03:36.577Z,12.87
2018-11-05T02:06:10.079Z,12.67
2018-11-05T02:08:43.648Z,14.70
2018-11-05T02:11:17.240Z,11.90
2018-11-05T02:13:50.725Z,11.70
2018-11-05T02:16:24.198Z,13.07
2018-11-05T02:18:57.553Z,8.10
2018-11-05T02:21:31.247Z,10.40
2018-11-05T02:24:04.723Z,10.60
2018-11-05T02:26:38.333Z,11.80
2018-11-05T02:29:11.818Z,12.47
2018-11-05T02:31:45.221Z,10.03
2018-11-05T02:34:18.754Z,13.67
2018-11-05T02:36:52.339Z,9.40
2018-11-05T02:39:25.971Z,11.20
2018-11-05T02:41:59.522Z,7.83
2018-11-05T02:44:33.018Z,10.13
2018-11-05T02:47:06.360Z,8.70
2018-11-05T02:49:39.860Z,13.03
2018-11-05T02:52:13.475Z,7.37
2018-11-05T02:54:47.048Z,9.90
2018-11-05T02:57:20.520Z,12.00
2018-11-05T02:59:53.926Z,9.20
2018-11-05T03:02:27.528Z,8.93
2018-11-05T03:05:00.993Z,13.60
2018-11-05T03:07:34.407Z,9.20
2018-11-05T03:10:08.866Z,12.50
2018-11-05T03:12:42.913Z,15.33
2018-11-05T03:15:17.429Z,8.50
2018-11-05T03:17:51.017Z,10.90
2018-11-05T03:20:24.992Z,10.40
2018-11-05T03:22:58.530Z,15.70
2018-11-05T03:25:32.060Z,18.53
2018-11-05T03:28:05.508Z,9.70
2018-11-05T03:30:38.786Z,9.60
2018-11-05T03:33:12.192Z,8.40
2018-11-05T03:35:45.840Z,10.13
2018-11-05T03:38:19.305Z,11.50
2018-11-05T03:40:52.851Z,13.53
2018-11-05T03:43:26.244Z,14.43
2018-11-05T03:45:59.762Z,11.30
2018-11-05T03:48:34.194Z,11.50
2018-11-05T03:51:07.677Z,8.83
2018-11-05T03:53:41.053Z,8.93
2018-11-05T03:56:14.488Z,10.20
2018-11-05T03:58:47.844Z,10.23
2018-11-05T04:01:21.245Z,7.23
2018-11-05T04:03:54.881Z,9.23
2018-11-05T04:06:28.491Z,8.93
2018-11-05T04:09:01.912Z,10.63
2018-11-05T04:11:35.436Z,17.47
2018-11-05T04:14:08.873Z,16.60
2018-11-05T04:16:42.267Z,11.70
2018-11-05T04:19:15.719Z,15.73
2018-11-05T04:21:49.194Z,11.37
2018-11-05T04:24:22.841Z,10.00
2018-11-05T04:26:56.469Z,12.07
2018-11-05T04:29:30.066Z,12.23
2018-11-05T04:32:04.066Z,11.50
2018-11-05T04:34:37.604Z,9.53
2018-11-05T04:37:10.956Z,13.37
2018-11-05T04:39:44.562Z,13.73
2018-11-05T04:42:18.001Z,13.60
2018-11-05T04:44:51.581Z,10.33
2018-11-05T04:47:25.056Z,10.47
2018-11-05T04:49:58.456Z,13.83
2018-11-05T04:52:31.911Z,11.80
2018-11-05T04:55:05.461Z,10.53
2018-11-05T04:57:38.966Z,10.47
2018-11-05T05:00:14.397Z,11.43
2018-11-05T05:02:47.659Z,13.10
2018-11-05T05:05:21.126Z,10.90
2018-11-05T05:07:54.705Z,11.37
2018-11-05T05:10:28.032Z,9.57
2018-11-05T05:13:01.530Z,9.90
2018-11-05T05:15:35.011Z,10.80
2018-11-05T05:18:08.381Z,14.13
2018-11-05T05:20:41.867Z,13.43
2018-11-05T05:23:15.498Z,9.77
2018-11-05T05:25:49.074Z,13.20
2018-11-05T05:28:22.729Z,15.93
2018-11-05T05:30:56.150Z,11.57
2018-11-05T05:33:29.613Z,14.00
2018-11-05T05:36:03.236Z,11.17
2018-11-05T05:38:36.589Z,11.47
2018-11-05T05:41:10.240Z,19.50
2018-11-05T05:43:43.825Z,13.57
2018-11-05T05:46:17.555Z,15.13
2018-11-05T05:48:51.154Z,15.43
2018-11-05T05:51:24.509Z,14.70
2018-11-05T05:53:57.962Z,15.40
2018-11-05T05:56:31.368Z,15.07
2018-11-05T05:59:04.779Z,11.30
2018-11-05T06:01:38.081Z,18.30
2018-11-05T06:04:11.736Z,13.80
2018-11-05T06:06:45.224Z,17.47
2018-11-05T06:09:18.777Z,9.67
2018-11-05T06:11:52.125Z,17.30
2018-11-05T06:14:25.485Z,14.07
2018-11-05T06:16:58.977Z,13.33
2018-11-05T06:19:32.498Z,17.43
2018-11-05T06:22:06.673Z,11.37
2018-11-05T06:24:40.216Z,15.50
2018-11-05T06:27:13.549Z,14.80
2018-11-05T06:29:46.982Z,15.83
2018-11-05T06:32:20.643Z,16.73
2018-11-05T06:34:54.239Z,13.10
2018-11-05T06:37:27.739Z,12.80
2018-11-05T06:40:01.139Z,14.30
2018-11-05T06:42:34.709Z,17.67
2018-11-05T06:45:10.883Z,15.37
2018-11-05T06:47:44.901Z,17.10
2018-11-05T06:50:19.892Z,21.73
2018-11-05T06:52:53.518Z,15.27
2018-11-05T06:55:26.981Z,16.53
2018-11-05T06:58:01.213Z,17.00
2018-11-05T07:00:34.695Z,17.50
2018-11-05T07:03:08.091Z,12.87
2018-11-05T07:05:41.608Z,16.57
2018-11-05T07:08:15.130Z,15.53
2018-11-05T07:10:48.660Z,13.80
2018-11-05T07:13:21.958Z,15.07
2018-11-05T07:15:55.316Z,17.93
2018-11-05T07:18:28.944Z,15.20
2018-11-05T07:21:02.393Z,16.40
2018-11-05T07:23:35.877Z,19.83
2018-11-05T07:26:09.390Z,15.70
2018-11-05T07:28:42.756Z,18.43
2018-11-05T07:31:16.190Z,19.73
2018-11-05T07:33:50.047Z,14.90
2018-11-05T07:36:23.400Z,20.40
2018-11-05T07:38:57.004Z,17.00
2018-11-05T07:41:30.537Z,17.03
2018-11-05T07:44:04.215Z,18.90
2018-11-05T07:46:38.044Z,18.93
2018-11-05T07:49:11.629Z,17.37
2018-11-05T07:51:45.270Z,18.10
2018-11-05T07:54:18.809Z,20.03
2018-11-05T07:56:52.456Z,18.37
2018-11-05T07:59:25.929Z,24.70
2018-11-05T08:01:59.489Z,19.43
2018-11-05T08:04:33.065Z,18.63
2018-11-05T08:07:06.556Z,16.90
2018-11-05T08:09:40.077Z,20.60
2018-11-05T08:12:13.658Z,28.10
2018-11-05T08:14:47.194Z,21.60
2018-11-05T08:17:20.722Z,20.67
2018-11-05T08:19:54.363Z,25.63
2018-11-05T08:22:27.707Z,20.40
2018-11-05T08:25:01.261Z,20.77
2018-11-05T08:27:34.948Z,18.90
2018-11-05T08:30:12.413Z,25.53
2018-11-05T08:32:45.906Z,21.93
2018-11-05T08:35:19.377Z,20.23
2018-11-05T08:37:53.351Z,24.33
2018-11-05T08:40:27.216Z,21.17
2018-11-05T08:43:00.657Z,21.27
2018-11-05T08:45:34.176Z,17.87
2018-11-05T08:48:07.516Z,18.60
2018-11-05T08:50:41.248Z,21.03
2018-11-05T08:53:14.700Z,18.87
2018-11-05T08:55:48.204Z,27.20
2018-11-05T08:58:21.695Z,24.80
2018-11-05T09:00:59.726Z,19.43
2018-11-05T09:03:33.221Z,20.37
2018-11-05T09:06:06.857Z,21.30
2018-11-05T09:08:40.357Z,21.23
2018-11-05T09:11:14.067Z,21.67
2018-11-05T09:13:47.149Z,20.13
2018-11-05T09:16:20.923Z,22.30
2018-11-05T09:18:54.385Z,21.40
2018-11-05T09:21:28.026Z,20.20
2018-11-05T09:24:02.132Z,28.07
2018-11-05T09:26:35.676Z,23.70
2018-11-05T09:29:09.211Z,21.10
2018-11-05T09:31:42.837Z,20.93
2018-11-05T09:34:16.876Z,23.00
2018-11-05T09:36:50.295Z,21.20
2018-11-05T09:39:23.709Z,26.40
2018-11-05T09:41:57.288Z,22.33
2018-11-05T09:44:30.712Z,24.70
2018-11-05T09:47:05.084Z,21.20
2018-11-05T09:49:38.577Z,24.80
2018-11-05T09:52:12.183Z,24.67
2018-11-05T09:54:45.714Z,19.60
2018-11-05T09:57:19.491Z,30.20
2018-11-05T09:59:52.869Z,24.40
2018-11-05T10:02:31.023Z,23.33
2018-11-05T10:05:04.879Z,19.60
2018-11-05T10:07:38.032Z,21.63
2018-11-05T10:10:12.335Z,22.17
2018-11-05T10:12:46.031Z,23.10
2018-11-05T10:15:19.490Z,27.87
2018-11-05T10:17:52.953Z,20.30
2018-11-05T10:20:26.568Z,26.03
2018-11-05T10:23:00.064Z,24.90
2018-11-05T10:25:33.576Z,20.07
2018-11-05T10:28:08.045Z,24.47
2018-11-05T10:30:41.590Z,23.83
2018-11-05T10:33:15.164Z,21.40
2018-11-05T10:35:54.136Z,20.30
2018-11-05T10:38:27.601Z,27.37
2018-11-05T10:41:01.195Z,23.47
2018-11-05T10:43:34.814Z,28.83
2018-11-05T10:46:08.432Z,24.50
2018-11-05T10:48:41.900Z,24.70
2018-11-05T10:51:15.519Z,21.03
2018-11-05T10:53:49.082Z,21.97
2018-11-05T10:56:22.729Z,30.10
2018-11-05T10:58:56.334Z,23.80
2018-11-05T11:01:35.581Z,24.67
2018-11-05T11:04:14.791Z,23.10
2018-11-05T11:06:48.231Z,24.30
2018-11-05T11:09:21.928Z,25.03
2018-11-05T11:11:55.757Z,29.27
2018-11-05T11:14:29.604Z,24.33
2018-11-05T11:17:03.067Z,22.70
2018-11-05T11:19:36.556Z,25.23
2018-11-05T11:22:11.111Z,24.23
2018-11-05T11:24:44.720Z,26.27
2018-11-05T11:27:18.149Z,24.10
2018-11-05T11:29:51.721Z,22.57
2018-11-05T11:32:25.327Z,22.93
2018-11-05T11:34:59.632Z,29.87
2018-11-05T11:37:33.169Z,21.97
2018-11-05T11:40:08.617Z,22.83
2018-11-05T11:42:42.997Z,24.20
2018-11-05T11:45:17.743Z,32.73
2018-11-05T11:47:50.993Z,28.87
2018-11-05T11:50:24.384Z,21.07
2018-11-05T11:52:58.099Z,28.80
2018-11-05T11:55:31.557Z,28.47
2018-11-05T11:58:05.352Z,31.50
2018-11-05T12:00:38.755Z,25.47
2018-11-05T12:03:12.376Z,28.03
2018-11-05T12:05:45.881Z,23.10
2018-11-05T12:08:19.477Z,26.83
2018-11-05T12:10:53.088Z,26.93
2018-11-05T12:13:26.637Z,26.30
2018-11-05T12:16:00.020Z,25.63
2018-11-05T12:18:33.637Z,26.83
2018-11-05T12:21:07.274Z,23.70
2018-11-05T12:23:40.869Z,26.60
2018-11-05T12:26:14.485Z,28.10
2018-11-05T12:28:48.093Z,25.73
2018-11-05T12:31:21.613Z,24.33
2018-11-05T12:33:55.205Z,26.37
2018-11-05T12:36:28.560Z,20.73
2018-11-05T12:39:02.044Z,23.93
2018-11-05T12:41:35.652Z,24.40
2018-11-05T12:44:10.164Z,22.60
2018-11-05T12:46:43.613Z,27.33
2018-11-05T12:49:17.161Z,25.60
2018-11-05T12:51:50.721Z,25.73
2018-11-05T12:54:24.915Z,26.23
2018-11-05T12:56:58.368Z,25.60
2018-11-05T12:59:31.741Z,27.50
2018-11-05T13:02:05.608Z,22.63
2018-11-05T13:04:38.871Z,24.90
2018-11-05T13:07:12.511Z,25.70
2018-11-05T13:09:46.060Z,23.73
2018-11-05T13:12:19.849Z,29.20
2018-11-05T13:14:53.354Z,24.03
2018-11-05T13:17:26.770Z,31.87
2018-11-05T13:20:00.092Z,22.20
2018-11-05T13:22:33.463Z,25.43
2018-11-05T13:25:07.048Z,24.83
2018-11-05T13:27:41.996Z,23.40
2018-11-05T13:30:15.799Z,25.80
2018-11-05T13:32:49.351Z,28.00
2018-11-05T13:35:22.825Z,30.60
2018-11-05T13:37:56.783Z,25.90
2018-11-05T13:40:29.785Z,23.70
2018-11-05T13:43:03.282Z,25.97
2018-11-05T13:45:37.097Z,26.97
2018-11-05T13:48:10.631Z,25.10
2018-11-05T13:50:44.078Z,24.13
2018-11-05T13:53:17.602Z,25.87
2018-11-05T13:55:51.169Z,27.20
2018-11-05T13:58:24.592Z,24.10
2018-11-05T14:00:58.237Z,22.57
2018-11-05T14:03:31.697Z,22.87
2018-11-05T14:06:05.353Z,30.30
2018-11-05T14:08:39.351Z,23.00
2018-11-05T14:11:12.982Z,26.63
2018-11-05T14:13:46.564Z,24.53
2018-11-05T14:16:20.185Z,31.00
2018-11-05T14:18:53.603Z,27.23
2018-11-05T14:21:27.120Z,23.63
2018-11-05T14:24:00.741Z,28.00
2018-11-05T14:26:34.292Z,24.30
2018-11-05T14:29:08.209Z,31.37
2018-11-05T14:31:41.444Z,28.50
2018-11-05T14:34:15.050Z,29.40
2018-11-05T14:36:48.674Z,23.30
2018-11-05T14:39:21.961Z,23.17
2018-11-05T14:41:55.452Z,25.00
2018-11-05T14:44:28.955Z,30.50
2018-11-05T14:47:02.397Z,26.40
2018-11-05T14:49:36.103Z,27.50
2018-11-05T14:52:09.598Z,24.57
2018-11-05T14:54:43.205Z,23.40
2018-11-05T14:57:16.803Z,26.57
2018-11-05T14:59:50.346Z,23.70
2018-11-05T15:02:29.346Z,27.40
2018-11-05T15:05:02.791Z,27.43
2018-11-05T15:07:36.677Z,29.37
2018-11-05T15:10:12.892Z,25.77
2018-11-05T15:12:46.368Z,24.77
2018-11-05T15:15:20.521Z,35.90
2018-11-05T15:17:54.095Z,25.90
2018-11-05T15:20:27.730Z,29.10
2018-11-05T15:23:01.295Z,24.67
2018-11-05T15:25:34.932Z,26.30
2018-11-05T15:28:08.506Z,25.30
2018-11-05T15:30:41.840Z,27.57
2018-11-05T15:33:16.228Z,24.20
2018-11-05T15:35:49.703Z,29.53
2018-11-05T15:38:23.398Z,26.13
2018-11-05T15:40:57.128Z,25.10
2018-11-05T15:43:30.657Z,23.17
2018-11-05T15:46:05.115Z,32.60
2018-11-05T15:48:38.530Z,24.07
2018-11-05T15:51:12.207Z,23.83
2018-11-05T15:53:45.449Z,25.77
2018-11-05T15:56:18.886Z,27.43
2018-11-05T15:58:52.278Z,31.30
2018-11-05T16:01:25.761Z,28.70
2018-11-05T16:03:59.205Z,32.73
2018-11-05T16:06:32.599Z,43.17
2018-11-05T16:09:07.200Z,26.23
2018-11-05T16:11:40.801Z,27.50
2018-11-05T16:14:14.411Z,30.10
2018-11-05T16:16:47.805Z,25.50
2018-11-05T16:19:21.120Z,23.87
2018-11-05T16:21:54.463Z,23.93
2018-11-05T16:24:28.188Z,23.40
2018-11-05T16:27:01.451Z,23.57
2018-11-05T16:29:34.886Z,30.77
2018-11-05T16:32:08.375Z,21.80
2018-11-05T16:34:41.635Z,40.37
2018-11-05T16:37:14.985Z,49.23
2018-11-05T16:39:48.695Z,44.50
2018-11-05T16:42:22.911Z,21.23
2018-11-05T16:44:56.284Z,26.90
2018-11-05T16:47:29.787Z,22.73
2018-11-05T16:50:05.815Z,23.13
2018-11-05T16:52:39.164Z,20.40
2018-11-05T16:55:13.525Z,21.30
2018-11-05T16:57:46.901Z,28.20
2018-11-05T17:00:20.492Z,25.43
2018-11-05T17:02:53.905Z,24.37
2018-11-05T17:05:27.458Z,25.37
2018-11-05T17:08:00.964Z,20.03
2018-11-05T17:10:34.483Z,24.63
2018-11-05T17:13:07.969Z,23.63
2018-11-05T17:15:41.284Z,24.93
2018-11-05T17:18:14.805Z,20.43
2018-11-05T17:20:48.329Z,25.97
2018-11-05T17:23:24.166Z,19.07
2018-11-05T17:25:57.731Z,20.40
2018-11-05T17:28:31.089Z,27.83
2018-11-05T17:31:06.157Z,24.53
2018-11-05T17:33:39.632Z,26.30
2018-11-05T17:36:13.132Z,21.83
2018-11-05T17:38:46.544Z,24.80
2018-11-05T17:41:20.037Z,18.53
2018-11-05T17:43:53.742Z,23.23
2018-11-05T17:46:27.110Z,25.97
2018-11-05T17:49:00.812Z,27.87
2018-11-05T17:51:34.444Z,25.93
2018-11-05T17:54:08.560Z,24.67
2018-11-05T17:56:41.989Z,21.50
2018-11-05T17:59:15.447Z,26.30
2018-11-05T18:01:49.153Z,24.20
2018-11-05T18:04:22.804Z,27.40
2018-11-05T18:06:56.270Z,25.80
2018-11-05T18:09:29.663Z,25.17
2018-11-05T18:12:03.386Z,28.83
2018-11-05T18:14:37.014Z,23.57
2018-11-05T18:17:10.638Z,31.27
2018-11-05T18:19:44.241Z,21.80
2018-11-05T18:22:17.642Z,23.63
2018-11-05T18:24:51.026Z,34.00
2018-11-05T18:27:24.601Z,51.17
2018-11-05T18:29:58.435Z,54.60
2018-11-05T18:32:31.827Z,43.27
2018-11-05T18:35:07.250Z,29.10
2018-11-05T18:37:41.818Z,19.43
2018-11-05T18:40:15.729Z,25.27
2018-11-05T18:42:49.273Z,24.73
2018-11-05T18:45:22.961Z,23.83
2018-11-05T18:47:56.490Z,23.13
2018-11-05T18:50:30.033Z,19.40
2018-11-05T18:53:03.838Z,21.40
2018-11-05T18:55:37.270Z,21.57
2018-11-05T18:58:10.776Z,22.00
2018-11-05T19:00:45.022Z,19.40
2018-11-05T19:03:18.600Z,19.17
2018-11-05T19:05:52.140Z,24.77
2018-11-05T19:08:25.739Z,18.73
2018-11-05T19:10:59.629Z,24.60
2018-11-05T19:13:33.200Z,25.27
2018-11-05T19:16:06.837Z,21.20
2018-11-05T19:18:40.134Z,25.93
2018-11-05T19:21:13.642Z,24.57
2018-11-05T19:23:47.768Z,23.77
2018-11-05T19:26:21.067Z,17.30
2018-11-05T19:28:54.672Z,22.83
2018-11-05T19:31:28.277Z,23.07
2018-11-05T19:34:01.987Z,22.73
2018-11-05T19:36:35.547Z,21.07
2018-11-05T19:39:10.550Z,38.37
2018-11-05T19:41:44.178Z,44.27
2018-11-05T19:44:17.719Z,25.90
2018-11-05T19:46:51.425Z,25.70
2018-11-05T19:49:25.052Z,22.10
2018-11-05T19:51:58.540Z,22.13
2018-11-05T19:54:31.891Z,24.97
2018-11-05T19:57:05.478Z,19.93
2018-11-05T19:59:39.167Z,22.13
2018-11-05T20:02:12.708Z,23.27
2018-11-05T20:04:46.205Z,19.97
2018-11-05T20:07:19.861Z,19.43
2018-11-05T20:09:53.605Z,20.50
2018-11-05T20:12:27.306Z,27.23
2018-11-05T20:15:00.963Z,25.90
2018-11-05T20:17:34.712Z,23.83
2018-11-05T20:20:10.110Z,26.87
2018-11-05T20:22:43.819Z,26.40
2018-11-05T20:25:17.297Z,25.03
2018-11-05T20:27:50.920Z,24.80
2018-11-05T20:30:25.635Z,25.47
2018-11-05T20:32:59.594Z,25.43
2018-11-05T20:35:32.702Z,36.13
2018-11-05T20:38:06.227Z,27.83
2018-11-05T20:40:39.750Z,22.80
2018-11-05T20:43:13.116Z,25.93
2018-11-05T20:45:46.546Z,20.03
2018-11-05T20:48:20.113Z,22.60
2018-11-05T20:50:53.557Z,26.20
2018-11-05T20:53:27.092Z,25.27
2018-11-05T20:56:00.663Z,25.43
2018-11-05T20:58:34.205Z,27.37
2018-11-05T21:01:07.831Z,24.23
2018-11-05T21:03:41.382Z,26.27
2018-11-05T21:06:14.971Z,22.87
2018-11-05T21:08:48.472Z,25.60
2018-11-05T21:11:21.929Z,22.70
2018-11-05T21:13:55.317Z,36.93
2018-11-05T21:16:29.268Z,41.67
2018-11-05T21:19:02.943Z,33.03
2018-11-05T21:21:36.635Z,49.27
2018-11-05T21:24:09.969Z,25.50
2018-11-05T21:26:43.699Z,22.13
2018-11-05T21:29:17.193Z,25.17
2018-11-05T21:31:50.653Z,21.60
2018-11-05T21:34:24.182Z,19.77
2018-11-05T21:36:57.724Z,19.87
2018-11-05T21:39:31.118Z,22.70
2018-11-05T21:42:04.501Z,19.23
2018-11-05T21:44:37.913Z,24.63
2018-11-05T21:47:11.530Z,23.10
2018-11-05T21:49:45.638Z,24.53
2018-11-05T21:52:19.188Z,30.33
2018-11-05T21:54:52.901Z,29.47
2018-11-05T21:57:26.386Z,20.53
2018-11-05T21:59:59.975Z,25.87
2018-11-05T22:02:37.945Z,25.17
2018-11-05T22:05:11.584Z,19.60
2018-11-05T22:07:45.560Z,20.13
2018-11-05T22:10:19.085Z,25.30
2018-11-05T22:12:52.573Z,26.27
2018-11-05T22:15:30.732Z,18.40
2018-11-05T22:18:04.204Z,15.37
2018-11-05T22:20:37.644Z,17.47
2018-11-05T22:23:11.000Z,18.43
2018-11-05T22:25:44.460Z,18.07
2018-11-05T22:28:17.806Z,19.87
2018-11-05T22:30:51.326Z,20.33
2018-11-05T22:33:24.622Z,23.63
2018-11-05T22:35:58.039Z,20.53
2018-11-05T22:38:31.689Z,21.47
2018-11-05T22:41:05.756Z,17.87
2018-11-05T22:43:39.465Z,19.33
2018-11-05T22:46:13.037Z,26.80
2018-11-05T22:48:46.766Z,19.60
2018-11-05T22:51:20.267Z,19.33
2018-11-05T22:53:53.867Z,20.77
2018-11-05T22:56:27.388Z,18.00
2018-11-05T22:59:00.997Z,21.70
2018-11-05T23:01:40.125Z,21.60
2018-11-05T23:04:13.609Z,16.90
2018-11-05T23:06:47.518Z,20.50
2018-11-05T23:09:21.505Z,22.03
2018-11-05T23:11:55.098Z,15.77
2018-11-05T23:14:28.369Z,25.60
2018-11-05T23:17:01.885Z,22.20
2018-11-05T23:19:35.285Z,23.67
2018-11-05T23:22:08.624Z,15.83
2018-11-05T23:24:41.871Z,21.00
2018-11-05T23:27:15.397Z,20.77
2018-11-05T23:29:48.877Z,22.53
2018-11-05T23:32:22.216Z,21.67
2018-11-05T23:34:55.764Z,16.60
2018-11-05T23:37:29.390Z,22.50
2018-11-05T23:40:02.989Z,19.20
2018-11-05T23:42:37.312Z,21.83
2018-11-05T23:45:12.557Z,15.20
2018-11-05T23:47:46.098Z,19.30
2018-11-05T23:50:19.526Z,17.00
2018-11-05T23:52:53.127Z,18.43
2018-11-05T23:55:26.475Z,17.00
2018-11-05T23:57:59.838Z,16.27
